sensor_id;sensor_type;location;lat;lon;timestamp;pressure;altitude;pressure_sealevel;temperature;humidity
40872;BME280;26591;43.264;26.940;2023-01-28T00:00:05;98299.00;;;1.12;86.25
40872;BME280;26591;43.264;26.940;2023-01-28T00:02:32;98302.00;;;1.29;86.00
40872;BME280;26591;43.264;26.940;2023-01-28T00:04:58;98302.47;;;1.34;85.46
40872;BME280;26591;43.264;26.940;2023-01-28T00:07:23;98301.50;;;1.14;85.43
40872;BME280;26591;43.264;26.940;2023-01-28T00:09:49;98302.72;;;0.98;85.18
40872;BME280;26591;43.264;26.940;2023-01-28T00:12:14;98305.25;;;0.88;86.12
40872;BME280;26591;43.264;26.940;2023-01-28T00:14:40;98310.94;;;0.82;85.97
40872;BME280;26591;43.264;26.940;2023-01-28T00:17:05;98308.03;;;0.97;85.78
40872;BME280;26591;43.264;26.940;2023-01-28T00:19:31;98314.09;;;0.97;85.69
40872;BME280;26591;43.264;26.940;2023-01-28T00:21:56;98320.22;;;1.08;84.67
40872;BME280;26591;43.264;26.940;2023-01-28T00:24:22;98322.03;;;0.96;84.93
40872;BME280;26591;43.264;26.940;2023-01-28T00:26:47;98326.63;;;1.03;84.25
40872;BME280;26591;43.264;26.940;2023-01-28T00:29:16;98332.59;;;1.27;83.90
40872;BME280;26591;43.264;26.940;2023-01-28T00:31:41;98333.19;;;1.30;83.59
40872;BME280;26591;43.264;26.940;2023-01-28T00:34:08;98333.31;;;1.29;82.84
40872;BME280;26591;43.264;26.940;2023-01-28T00:36:33;98336.75;;;1.18;82.67
40872;BME280;26591;43.264;26.940;2023-01-28T00:39:04;98334.56;;;1.02;82.87
40872;BME280;26591;43.264;26.940;2023-01-28T00:41:29;98339.59;;;0.94;83.72
40872;BME280;26591;43.264;26.940;2023-01-28T00:43:55;98344.69;;;0.84;84.94
40872;BME280;26591;43.264;26.940;2023-01-28T00:46:21;98339.84;;;0.79;85.02
40872;BME280;26591;43.264;26.940;2023-01-28T00:48:47;98352.25;;;0.98;84.97
40872;BME280;26591;43.264;26.940;2023-01-28T00:51:14;98349.63;;;0.98;84.62
40872;BME280;26591;43.264;26.940;2023-01-28T00:53:41;98344.53;;;0.97;84.57
40872;BME280;26591;43.264;26.940;2023-01-28T00:56:10;98340.88;;;0.99;84.67
40872;BME280;26591;43.264;26.940;2023-01-28T00:58:36;98342.28;;;0.92;83.77
40872;BME280;26591;43.264;26.940;2023-01-28T01:01:07;98353.53;;;1.04;83.42
40872;BME280;26591;43.264;26.940;2023-01-28T01:03:33;98347.09;;;1.19;82.70
40872;BME280;26591;43.264;26.940;2023-01-28T01:05:58;98346.53;;;1.04;82.72
40872;BME280;26591;43.264;26.940;2023-01-28T01:08:24;98346.75;;;1.13;82.87
40872;BME280;26591;43.264;26.940;2023-01-28T01:11:03;98356.66;;;1.19;82.34
40872;BME280;26591;43.264;26.940;2023-01-28T01:13:30;98357.97;;;0.69;82.44
40872;BME280;26591;43.264;26.940;2023-01-28T01:16:01;98353.81;;;0.67;83.01
40872;BME280;26591;43.264;26.940;2023-01-28T01:18:27;98355.94;;;0.73;82.23
40872;BME280;26591;43.264;26.940;2023-01-28T01:20:52;98364.00;;;0.70;82.80
40872;BME280;26591;43.264;26.940;2023-01-28T01:23:24;98366.25;;;0.63;82.95
40872;BME280;26591;43.264;26.940;2023-01-28T01:25:50;98364.94;;;0.57;83.68
40872;BME280;26591;43.264;26.940;2023-01-28T01:28:16;98361.66;;;0.33;84.53
40872;BME280;26591;43.264;26.940;2023-01-28T01:30:42;98370.03;;;0.59;84.02
40872;BME280;26591;43.264;26.940;2023-01-28T01:33:07;98370.28;;;0.56;85.13
40872;BME280;26591;43.264;26.940;2023-01-28T01:35:33;98376.91;;;0.60;85.20
40872;BME280;26591;43.264;26.940;2023-01-28T01:37:58;98375.84;;;0.63;85.11
40872;BME280;26591;43.264;26.940;2023-01-28T01:40:23;98371.94;;;0.45;84.79
40872;BME280;26591;43.264;26.940;2023-01-28T01:42:54;98385.06;;;0.44;84.21
40872;BME280;26591;43.264;26.940;2023-01-28T01:45:20;98381.03;;;0.28;84.83
40872;BME280;26591;43.264;26.940;2023-01-28T01:50:47;98383.88;;;0.25;84.92
40872;BME280;26591;43.264;26.940;2023-01-28T01:53:17;98386.00;;;0.32;84.19
40872;BME280;26591;43.264;26.940;2023-01-28T01:55:47;98384.94;;;0.23;83.88
40872;BME280;26591;43.264;26.940;2023-01-28T01:58:17;98380.19;;;0.05;84.09
40872;BME280;26591;43.264;26.940;2023-01-28T02:00:43;98384.19;;;-0.02;84.44
40872;BME280;26591;43.264;26.940;2023-01-28T02:03:11;98384.09;;;0.11;84.67
40872;BME280;26591;43.264;26.940;2023-01-28T02:05:38;98389.78;;;0.16;83.80
40872;BME280;26591;43.264;26.940;2023-01-28T02:08:04;98391.94;;;0.34;83.17
40872;BME280;26591;43.264;26.940;2023-01-28T02:11:06;98390.88;;;0.36;83.27
40872;BME280;26591;43.264;26.940;2023-01-28T02:13:37;98394.13;;;0.15;83.93
40872;BME280;26591;43.264;26.940;2023-01-28T02:16:04;98401.47;;;0.10;83.58
40872;BME280;26591;43.264;26.940;2023-01-28T02:18:31;98401.94;;;0.04;83.98
40872;BME280;26591;43.264;26.940;2023-01-28T02:21:26;98404.81;;;0.12;84.29
40872;BME280;26591;43.264;26.940;2023-01-28T02:29:43;98414.38;;;0.12;84.84
40872;BME280;26591;43.264;26.940;2023-01-28T02:35:02;98414.16;;;0.15;84.82
40872;BME280;26591;43.264;26.940;2023-01-28T02:37:46;98421.78;;;-0.06;84.61
40872;BME280;26591;43.264;26.940;2023-01-28T02:40:36;98418.84;;;-0.02;84.57
40872;BME280;26591;43.264;26.940;2023-01-28T02:43:50;98422.75;;;0.04;84.72
40872;BME280;26591;43.264;26.940;2023-01-28T02:46:20;98424.25;;;-0.05;83.76
40872;BME280;26591;43.264;26.940;2023-01-28T02:49:09;98419.16;;;-0.18;84.09
40872;BME280;26591;43.264;26.940;2023-01-28T02:57:15;98425.91;;;-0.04;84.54
40872;BME280;26591;43.264;26.940;2023-01-28T03:02:50;98438.50;;;0.14;83.47
40872;BME280;26591;43.264;26.940;2023-01-28T03:05:25;98443.16;;;0.33;82.96
40872;BME280;26591;43.264;26.940;2023-01-28T03:07:52;98441.13;;;0.25;83.22
40872;BME280;26591;43.264;26.940;2023-01-28T03:10:20;98445.53;;;0.36;82.32
40872;BME280;26591;43.264;26.940;2023-01-28T03:12:53;98441.28;;;0.35;82.30
40872;BME280;26591;43.264;26.940;2023-01-28T03:15:45;98433.81;;;0.42;82.30
40872;BME280;26591;43.264;26.940;2023-01-28T03:18:46;98435.53;;;0.07;82.00
40872;BME280;26591;43.264;26.940;2023-01-28T03:21:39;98432.31;;;-0.08;82.48
40872;BME280;26591;43.264;26.940;2023-01-28T03:24:34;98428.44;;;-0.02;82.32
40872;BME280;26591;43.264;26.940;2023-01-28T03:27:35;98440.38;;;0.01;82.70
40872;BME280;26591;43.264;26.940;2023-01-28T03:30:42;98435.50;;;-0.04;82.80
40872;BME280;26591;43.264;26.940;2023-01-28T03:33:28;98435.03;;;0.02;82.50
40872;BME280;26591;43.264;26.940;2023-01-28T03:36:13;98427.47;;;-0.01;82.84
40872;BME280;26591;43.264;26.940;2023-01-28T03:38:57;98423.66;;;-0.08;82.39
40872;BME280;26591;43.264;26.940;2023-01-28T03:41:24;98434.22;;;0.71;85.72
40872;BME280;26591;43.264;26.940;2023-01-28T03:43:50;98433.97;;;0.52;83.10
40872;BME280;26591;43.264;26.940;2023-01-28T03:46:16;98438.44;;;0.27;81.98
40872;BME280;26591;43.264;26.940;2023-01-28T03:48:42;98438.06;;;0.32;81.07
40872;BME280;26591;43.264;26.940;2023-01-28T03:51:08;98432.50;;;0.13;81.52
40872;BME280;26591;43.264;26.940;2023-01-28T03:53:33;98438.19;;;-0.06;82.26
40872;BME280;26591;43.264;26.940;2023-01-28T03:55:59;98439.72;;;-0.14;82.33
40872;BME280;26591;43.264;26.940;2023-01-28T03:58:24;98448.53;;;0.07;82.14
40872;BME280;26591;43.264;26.940;2023-01-28T04:01:25;98451.06;;;0.20;81.89
40872;BME280;26591;43.264;26.940;2023-01-28T04:03:51;98459.16;;;0.04;81.26
40872;BME280;26591;43.264;26.940;2023-01-28T04:06:16;98470.38;;;0.29;82.07
40872;BME280;26591;43.264;26.940;2023-01-28T04:08:42;98467.78;;;0.29;81.79
40872;BME280;26591;43.264;26.940;2023-01-28T04:11:19;98469.50;;;0.17;81.95
40872;BME280;26591;43.264;26.940;2023-01-28T04:13:47;98470.59;;;0.26;82.11
40872;BME280;26591;43.264;26.940;2023-01-28T04:16:15;98465.88;;;0.31;81.24
40872;BME280;26591;43.264;26.940;2023-01-28T04:18:44;98472.13;;;0.17;82.35
40872;BME280;26591;43.264;26.940;2023-01-28T04:21:10;98483.09;;;0.09;82.59
40872;BME280;26591;43.264;26.940;2023-01-28T04:23:36;98488.38;;;0.08;82.70
40872;BME280;26591;43.264;26.940;2023-01-28T04:26:02;98484.44;;;-0.34;83.13
40872;BME280;26591;43.264;26.940;2023-01-28T04:28:28;98483.09;;;-0.39;84.78
40872;BME280;26591;43.264;26.940;2023-01-28T04:30:54;98484.97;;;-0.41;84.59
40872;BME280;26591;43.264;26.940;2023-01-28T04:33:20;98487.41;;;-0.27;83.50
40872;BME280;26591;43.264;26.940;2023-01-28T04:35:46;98492.06;;;-0.19;83.07
40872;BME280;26591;43.264;26.940;2023-01-28T04:38:12;98488.75;;;-0.21;82.76
40872;BME280;26591;43.264;26.940;2023-01-28T04:40:37;98496.94;;;-0.14;82.60
40872;BME280;26591;43.264;26.940;2023-01-28T04:43:03;98492.63;;;-0.03;81.84
40872;BME280;26591;43.264;26.940;2023-01-28T04:45:28;98496.66;;;0.02;81.21
40872;BME280;26591;43.264;26.940;2023-01-28T04:47:55;98507.84;;;-0.09;82.09
40872;BME280;26591;43.264;26.940;2023-01-28T04:50:23;98505.53;;;-0.01;81.34
40872;BME280;26591;43.264;26.940;2023-01-28T04:52:49;98495.00;;;-0.24;80.91
40872;BME280;26591;43.264;26.940;2023-01-28T04:55:14;98507.28;;;-0.26;80.49
40872;BME280;26591;43.264;26.940;2023-01-28T04:57:40;98517.47;;;0.02;79.52
40872;BME280;26591;43.264;26.940;2023-01-28T05:00:06;98515.78;;;-0.11;79.50
40872;BME280;26591;43.264;26.940;2023-01-28T05:02:32;98516.91;;;0.09;79.93
40872;BME280;26591;43.264;26.940;2023-01-28T05:04:57;98521.84;;;0.01;79.87
40872;BME280;26591;43.264;26.940;2023-01-28T05:07:22;98526.34;;;-0.01;79.89
40872;BME280;26591;43.264;26.940;2023-01-28T05:09:48;98526.09;;;0.02;80.20
40872;BME280;26591;43.264;26.940;2023-01-28T05:12:16;98512.94;;;-0.32;80.00
40872;BME280;26591;43.264;26.940;2023-01-28T05:14:43;98521.47;;;-0.30;80.28
40872;BME280;26591;43.264;26.940;2023-01-28T05:17:08;98517.06;;;-0.54;80.01
40872;BME280;26591;43.264;26.940;2023-01-28T05:19:34;98531.19;;;-0.45;80.61
40872;BME280;26591;43.264;26.940;2023-01-28T05:21:59;98516.47;;;-0.33;79.46
40872;BME280;26591;43.264;26.940;2023-01-28T05:24:25;98522.22;;;-0.41;79.73
40872;BME280;26591;43.264;26.940;2023-01-28T05:26:50;98522.44;;;-0.44;78.53
40872;BME280;26591;43.264;26.940;2023-01-28T05:29:16;98526.84;;;-0.57;78.84
40872;BME280;26591;43.264;26.940;2023-01-28T05:31:41;98532.88;;;-0.57;78.18
40872;BME280;26591;43.264;26.940;2023-01-28T05:34:10;98539.81;;;-0.44;78.73
40872;BME280;26591;43.264;26.940;2023-01-28T05:36:37;98539.41;;;-0.51;78.95
40872;BME280;26591;43.264;26.940;2023-01-28T05:39:05;98542.88;;;-0.64;78.23
40872;BME280;26591;43.264;26.940;2023-01-28T05:41:32;98542.56;;;-0.59;78.21
40872;BME280;26591;43.264;26.940;2023-01-28T05:43:58;98547.13;;;-0.63;78.67
40872;BME280;26591;43.264;26.940;2023-01-28T05:46:23;98555.69;;;-0.36;77.76
40872;BME280;26591;43.264;26.940;2023-01-28T05:48:51;98557.75;;;-0.28;77.91
40872;BME280;26591;43.264;26.940;2023-01-28T05:51:17;98559.03;;;-0.34;77.53
40872;BME280;26591;43.264;26.940;2023-01-28T05:53:43;98562.75;;;-0.25;77.59
40872;BME280;26591;43.264;26.940;2023-01-28T05:56:08;98571.31;;;-0.36;77.53
40872;BME280;26591;43.264;26.940;2023-01-28T05:58:34;98572.78;;;-0.45;77.78
40872;BME280;26591;43.264;26.940;2023-01-28T06:00:59;98585.38;;;-0.52;78.76
40872;BME280;26591;43.264;26.940;2023-01-28T06:03:25;98582.50;;;-0.23;77.21
40872;BME280;26591;43.264;26.940;2023-01-28T06:05:50;98589.53;;;-0.49;77.88
40872;BME280;26591;43.264;26.940;2023-01-28T06:08:15;98600.63;;;-0.34;77.91
40872;BME280;26591;43.264;26.940;2023-01-28T06:10:41;98600.19;;;-0.28;78.19
40872;BME280;26591;43.264;26.940;2023-01-28T06:13:07;98600.19;;;-0.28;77.46
40872;BME280;26591;43.264;26.940;2023-01-28T06:15:32;98610.31;;;-0.36;77.84
40872;BME280;26591;43.264;26.940;2023-01-28T06:17:58;98614.31;;;-0.19;77.65
40872;BME280;26591;43.264;26.940;2023-01-28T06:20:24;98633.47;;;-0.20;78.01
40872;BME280;26591;43.264;26.940;2023-01-28T06:22:50;98615.38;;;-0.22;78.04
40872;BME280;26591;43.264;26.940;2023-01-28T06:25:16;98624.78;;;-0.32;78.31
40872;BME280;26591;43.264;26.940;2023-01-28T06:27:43;98634.41;;;-0.21;78.11
40872;BME280;26591;43.264;26.940;2023-01-28T06:30:09;98631.16;;;-0.12;77.37
40872;BME280;26591;43.264;26.940;2023-01-28T06:32:34;98632.38;;;-0.05;77.27
40872;BME280;26591;43.264;26.940;2023-01-28T06:35:00;98632.09;;;0.00;76.98
40872;BME280;26591;43.264;26.940;2023-01-28T06:37:25;98635.97;;;-0.19;76.98
40872;BME280;26591;43.264;26.940;2023-01-28T06:39:51;98637.25;;;-0.24;77.19
40872;BME280;26591;43.264;26.940;2023-01-28T06:42:17;98651.72;;;-0.33;77.08
40872;BME280;26591;43.264;26.940;2023-01-28T06:44:43;98654.72;;;-0.26;77.71
40872;BME280;26591;43.264;26.940;2023-01-28T06:47:08;98651.50;;;0.07;77.73
40872;BME280;26591;43.264;26.940;2023-01-28T06:49:38;98654.22;;;0.06;77.55
40872;BME280;26591;43.264;26.940;2023-01-28T06:52:03;98648.63;;;0.23;77.16
40872;BME280;26591;43.264;26.940;2023-01-28T06:54:29;98652.97;;;-0.02;77.41
40872;BME280;26591;43.264;26.940;2023-01-28T06:56:54;98664.78;;;0.15;77.08
40872;BME280;26591;43.264;26.940;2023-01-28T06:59:20;98663.72;;;-0.06;77.57
40872;BME280;26591;43.264;26.940;2023-01-28T07:01:45;98666.69;;;0.13;77.24
40872;BME280;26591;43.264;26.940;2023-01-28T07:04:11;98673.31;;;0.18;77.10
40872;BME280;26591;43.264;26.940;2023-01-28T07:06:36;98673.88;;;0.10;77.93
40872;BME280;26591;43.264;26.940;2023-01-28T07:09:02;98681.78;;;0.08;77.63
40872;BME280;26591;43.264;26.940;2023-01-28T07:11:28;98682.31;;;0.62;80.30
40872;BME280;26591;43.264;26.940;2023-01-28T07:13:53;98682.84;;;0.30;78.43
40872;BME280;26591;43.264;26.940;2023-01-28T07:16:18;98690.34;;;0.10;78.46
40872;BME280;26591;43.264;26.940;2023-01-28T07:18:44;98683.31;;;0.24;77.46
40872;BME280;26591;43.264;26.940;2023-01-28T07:21:09;98695.28;;;0.26;76.83
40872;BME280;26591;43.264;26.940;2023-01-28T07:23:35;98690.53;;;0.20;76.69
40872;BME280;26591;43.264;26.940;2023-01-28T07:26:01;98686.84;;;0.23;75.98
40872;BME280;26591;43.264;26.940;2023-01-28T07:28:27;98698.34;;;0.07;77.25
40872;BME280;26591;43.264;26.940;2023-01-28T07:30:52;98683.06;;;-0.10;77.30
40872;BME280;26591;43.264;26.940;2023-01-28T07:33:18;98685.88;;;-0.13;77.40
40872;BME280;26591;43.264;26.940;2023-01-28T07:35:44;98683.59;;;-0.05;77.73
40872;BME280;26591;43.264;26.940;2023-01-28T07:38:10;98687.34;;;-0.09;78.23
40872;BME280;26591;43.264;26.940;2023-01-28T07:40:36;98699.94;;;-0.03;78.00
40872;BME280;26591;43.264;26.940;2023-01-28T07:43:01;98693.53;;;0.14;77.10
40872;BME280;26591;43.264;26.940;2023-01-28T07:45:27;98696.88;;;0.03;77.05
40872;BME280;26591;43.264;26.940;2023-01-28T07:48:03;98694.28;;;0.16;77.04
40872;BME280;26591;43.264;26.940;2023-01-28T07:50:31;98706.16;;;0.07;77.43
40872;BME280;26591;43.264;26.940;2023-01-28T07:52:57;98693.81;;;-0.28;77.21
40872;BME280;26591;43.264;26.940;2023-01-28T07:55:23;98706.44;;;-0.48;78.86
40872;BME280;26591;43.264;26.940;2023-01-28T07:57:57;98715.13;;;-0.36;79.05
40872;BME280;26591;43.264;26.940;2023-01-28T08:00:24;98712.00;;;-0.15;78.70
40872;BME280;26591;43.264;26.940;2023-01-28T08:02:55;98711.00;;;-0.25;78.96
40872;BME280;26591;43.264;26.940;2023-01-28T08:05:22;98714.72;;;-0.42;79.11
40872;BME280;26591;43.264;26.940;2023-01-28T08:07:48;98716.63;;;-0.44;79.56
40872;BME280;26591;43.264;26.940;2023-01-28T08:10:15;98718.78;;;-0.38;80.27
40872;BME280;26591;43.264;26.940;2023-01-28T08:12:52;98732.72;;;-0.39;80.39
40872;BME280;26591;43.264;26.940;2023-01-28T08:15:18;98729.81;;;-0.35;79.63
40872;BME280;26591;43.264;26.940;2023-01-28T08:17:45;98724.63;;;-0.48;80.03
40872;BME280;26591;43.264;26.940;2023-01-28T08:20:10;98721.38;;;-0.51;81.09
40872;BME280;26591;43.264;26.940;2023-01-28T08:22:36;98725.13;;;-0.29;80.34
40872;BME280;26591;43.264;26.940;2023-01-28T08:25:02;98737.41;;;-0.19;79.67
40872;BME280;26591;43.264;26.940;2023-01-28T08:27:27;98738.88;;;-0.53;80.79
40872;BME280;26591;43.264;26.940;2023-01-28T08:29:53;98743.31;;;-0.68;81.09
40872;BME280;26591;43.264;26.940;2023-01-28T08:32:18;98752.88;;;-0.69;81.15
40872;BME280;26591;43.264;26.940;2023-01-28T08:34:44;98742.91;;;-0.62;82.43
40872;BME280;26591;43.264;26.940;2023-01-28T08:37:09;98745.84;;;-0.41;81.30
40872;BME280;26591;43.264;26.940;2023-01-28T08:39:35;98755.63;;;-0.32;81.30
40872;BME280;26591;43.264;26.940;2023-01-28T08:42:00;98745.78;;;-0.80;82.12
40872;BME280;26591;43.264;26.940;2023-01-28T08:44:26;98750.63;;;-0.48;81.20
40872;BME280;26591;43.264;26.940;2023-01-28T08:46:53;98750.50;;;-0.46;81.20
40872;BME280;26591;43.264;26.940;2023-01-28T08:49:19;98754.34;;;-0.52;82.25
40872;BME280;26591;43.264;26.940;2023-01-28T08:51:46;98737.72;;;-0.49;82.11
40872;BME280;26591;43.264;26.940;2023-01-28T08:54:12;98734.09;;;-0.47;81.64
40872;BME280;26591;43.264;26.940;2023-01-28T08:56:37;98736.34;;;-0.29;81.60
40872;BME280;26591;43.264;26.940;2023-01-28T08:59:04;98734.81;;;-0.44;81.32
40872;BME280;26591;43.264;26.940;2023-01-28T09:01:29;98731.88;;;-0.27;80.87
40872;BME280;26591;43.264;26.940;2023-01-28T09:03:55;98720.75;;;-0.29;80.41
40872;BME280;26591;43.264;26.940;2023-01-28T09:06:20;98721.72;;;-0.30;79.68
40872;BME280;26591;43.264;26.940;2023-01-28T09:08:46;98718.59;;;-0.35;80.30
40872;BME280;26591;43.264;26.940;2023-01-28T09:11:11;98718.69;;;-0.24;80.40
40872;BME280;26591;43.264;26.940;2023-01-28T09:13:37;98719.16;;;0.07;79.68
40872;BME280;26591;43.264;26.940;2023-01-28T09:16:05;98717.00;;;-0.12;80.40
40872;BME280;26591;43.264;26.940;2023-01-28T09:18:31;98713.16;;;-0.19;79.77
40872;BME280;26591;43.264;26.940;2023-01-28T09:20:56;98712.75;;;0.00;79.57
40872;BME280;26591;43.264;26.940;2023-01-28T09:23:24;98705.22;;;-0.05;79.35
40872;BME280;26591;43.264;26.940;2023-01-28T09:25:50;98716.97;;;0.14;79.02
40872;BME280;26591;43.264;26.940;2023-01-28T09:28:15;98724.56;;;0.04;78.75
40872;BME280;26591;43.264;26.940;2023-01-28T09:30:43;98724.38;;;0.07;78.70
40872;BME280;26591;43.264;26.940;2023-01-28T09:33:09;98731.69;;;-0.11;79.07
40872;BME280;26591;43.264;26.940;2023-01-28T09:35:34;98732.06;;;0.09;79.26
40872;BME280;26591;43.264;26.940;2023-01-28T09:38:16;98728.72;;;0.20;77.91
40872;BME280;26591;43.264;26.940;2023-01-28T09:40:42;98743.47;;;0.32;77.65
40872;BME280;26591;43.264;26.940;2023-01-28T09:45:47;98729.19;;;0.38;77.30
40872;BME280;26591;43.264;26.940;2023-01-28T09:48:23;98731.22;;;0.45;77.63
40872;BME280;26591;43.264;26.940;2023-01-28T09:50:55;98733.50;;;0.13;77.97
40872;BME280;26591;43.264;26.940;2023-01-28T09:56:12;98742.25;;;0.25;77.45
40872;BME280;26591;43.264;26.940;2023-01-28T09:58:40;98742.03;;;0.28;76.62
40872;BME280;26591;43.264;26.940;2023-01-28T10:06:45;98731.84;;;0.12;77.00
40872;BME280;26591;43.264;26.940;2023-01-28T10:09:24;98741.63;;;0.21;76.85
40872;BME280;26591;43.264;26.940;2023-01-28T10:15:09;98729.28;;;0.49;76.64
40872;BME280;26591;43.264;26.940;2023-01-28T10:17:43;98732.81;;;0.48;76.71
40872;BME280;26591;43.264;26.940;2023-01-28T10:22:40;98739.91;;;0.33;76.86
40872;BME280;26591;43.264;26.940;2023-01-28T10:25:20;98732.03;;;0.35;76.03
40872;BME280;26591;43.264;26.940;2023-01-28T10:27:47;98728.00;;;0.55;76.07
40872;BME280;26591;43.264;26.940;2023-01-28T10:35:16;98729.91;;;0.40;76.98
40872;BME280;26591;43.264;26.940;2023-01-28T10:37:42;98722.44;;;0.35;77.96
40872;BME280;26591;43.264;26.940;2023-01-28T10:40:15;98738.56;;;0.40;77.98
40872;BME280;26591;43.264;26.940;2023-01-28T10:42:42;98723.09;;;0.26;78.06
40872;BME280;26591;43.264;26.940;2023-01-28T10:45:28;98717.63;;;0.42;77.67
40872;BME280;26591;43.264;26.940;2023-01-28T10:50:28;98707.94;;;0.31;78.04
40872;BME280;26591;43.264;26.940;2023-01-28T10:52:58;98713.94;;;0.44;77.12
40872;BME280;26591;43.264;26.940;2023-01-28T10:55:56;98715.94;;;0.41;77.62
40872;BME280;26591;43.264;26.940;2023-01-28T10:58:24;98718.16;;;0.34;76.59
40872;BME280;26591;43.264;26.940;2023-01-28T11:00:53;98702.44;;;0.36;76.83
40872;BME280;26591;43.264;26.940;2023-01-28T11:03:20;98723.50;;;0.20;77.29
40872;BME280;26591;43.264;26.940;2023-01-28T11:05:55;98723.50;;;0.57;76.73
40872;BME280;26591;43.264;26.940;2023-01-28T11:08:23;98712.59;;;0.52;76.41
40872;BME280;26591;43.264;26.940;2023-01-28T11:10:52;98721.13;;;0.78;76.59
40872;BME280;26591;43.264;26.940;2023-01-28T11:15:59;98716.56;;;0.69;76.27
40872;BME280;26591;43.264;26.940;2023-01-28T11:18:32;98718.19;;;0.58;76.79
40872;BME280;26591;43.264;26.940;2023-01-28T11:21:00;98712.59;;;0.52;76.54
40872;BME280;26591;43.264;26.940;2023-01-28T11:23:40;98707.00;;;0.32;77.40
40872;BME280;26591;43.264;26.940;2023-01-28T11:26:36;98721.47;;;0.49;78.33
40872;BME280;26591;43.264;26.940;2023-01-28T11:29:03;98710.66;;;0.42;79.71
40872;BME280;26591;43.264;26.940;2023-01-28T11:31:37;98697.53;;;0.31;79.23
40872;BME280;26591;43.264;26.940;2023-01-28T11:34:04;98706.75;;;0.24;79.53
40872;BME280;26591;43.264;26.940;2023-01-28T11:36:32;98722.53;;;0.34;79.03
40872;BME280;26591;43.264;26.940;2023-01-28T11:39:16;98726.25;;;0.67;78.64
40872;BME280;26591;43.264;26.940;2023-01-28T11:41:43;98728.16;;;0.65;78.93
40872;BME280;26591;43.264;26.940;2023-01-28T11:44:15;98722.56;;;0.58;79.54
40872;BME280;26591;43.264;26.940;2023-01-28T11:52:34;98722.50;;;0.47;78.98
40872;BME280;26591;43.264;26.940;2023-01-28T12:00:39;98725.06;;;0.59;77.98
40872;BME280;26591;43.264;26.940;2023-01-28T12:03:31;98723.72;;;0.54;78.18
40872;BME280;26591;43.264;26.940;2023-01-28T12:06:10;98733.25;;;0.66;78.65
40872;BME280;26591;43.264;26.940;2023-01-28T12:12:15;98735.44;;;0.72;76.92
40872;BME280;26591;43.264;26.940;2023-01-28T12:15:07;98734.97;;;0.79;77.57
40872;BME280;26591;43.264;26.940;2023-01-28T12:20:51;98742.75;;;0.67;77.32
40872;BME280;26591;43.264;26.940;2023-01-28T12:26:50;98738.41;;;0.55;77.88
40872;BME280;26591;43.264;26.940;2023-01-28T12:35:21;98747.00;;;0.68;78.01
40872;BME280;26591;43.264;26.940;2023-01-28T12:38:14;98752.81;;;0.72;77.89
40872;BME280;26591;43.264;26.940;2023-01-28T12:40:54;98745.13;;;0.95;77.65
40872;BME280;26591;43.264;26.940;2023-01-28T12:46:34;98757.25;;;0.83;77.97
40872;BME280;26591;43.264;26.940;2023-01-28T12:49:13;98760.81;;;0.82;77.55
40872;BME280;26591;43.264;26.940;2023-01-28T12:51:45;98764.13;;;0.84;78.38
40872;BME280;26591;43.264;26.940;2023-01-28T12:54:35;98763.81;;;0.88;77.76
40872;BME280;26591;43.264;26.940;2023-01-28T12:57:03;98769.13;;;0.87;78.07
40872;BME280;26591;43.264;26.940;2023-01-28T12:59:41;98771.00;;;0.60;77.91
40872;BME280;26591;43.264;26.940;2023-01-28T13:10:24;98783.81;;;0.64;77.52
40872;BME280;26591;43.264;26.940;2023-01-28T13:12:51;98780.31;;;0.76;77.54
40872;BME280;26591;43.264;26.940;2023-01-28T13:15:18;98782.03;;;0.88;77.30
40872;BME280;26591;43.264;26.940;2023-01-28T13:18:00;98786.03;;;1.05;76.66
40872;BME280;26591;43.264;26.940;2023-01-28T13:20:48;98784.72;;;1.35;75.67
40872;BME280;26591;43.264;26.940;2023-01-28T13:25:55;98791.13;;;1.31;75.07
40872;BME280;26591;43.264;26.940;2023-01-28T13:28:27;98797.38;;;1.29;75.18
40872;BME280;26591;43.264;26.940;2023-01-28T13:31:07;98801.81;;;1.40;74.91
40872;BME280;26591;43.264;26.940;2023-01-28T13:33:38;98809.31;;;1.56;74.85
40872;BME280;26591;43.264;26.940;2023-01-28T13:38:43;98814.59;;;1.78;73.73
40872;BME280;26591;43.264;26.940;2023-01-28T13:41:09;98814.47;;;1.68;73.64
40872;BME280;26591;43.264;26.940;2023-01-28T13:43:36;98820.59;;;1.20;75.40
40872;BME280;26591;43.264;26.940;2023-01-28T13:46:06;98816.66;;;1.15;75.51
40872;BME280;26591;43.264;26.940;2023-01-28T13:48:35;98819.34;;;1.13;75.62
40872;BME280;26591;43.264;26.940;2023-01-28T13:51:11;98825.25;;;1.28;75.75
40872;BME280;26591;43.264;26.940;2023-01-28T13:54:02;98826.53;;;1.23;75.17
40872;BME280;26591;43.264;26.940;2023-01-28T14:02:31;98834.72;;;1.29;75.70
40872;BME280;26591;43.264;26.940;2023-01-28T14:05:18;98833.59;;;1.45;75.82
40872;BME280;26591;43.264;26.940;2023-01-28T14:08:08;98832.41;;;1.49;75.80
40872;BME280;26591;43.264;26.940;2023-01-28T14:10:44;98833.50;;;1.22;76.32
40872;BME280;26591;43.264;26.940;2023-01-28T14:15:57;98841.25;;;1.59;76.34
40872;BME280;26591;43.264;26.940;2023-01-28T14:18:39;98843.47;;;1.52;75.95
40872;BME280;26591;43.264;26.940;2023-01-28T14:21:12;98842.19;;;1.58;76.00
40872;BME280;26591;43.264;26.940;2023-01-28T14:23:46;98840.25;;;1.49;76.25
40872;BME280;26591;43.264;26.940;2023-01-28T14:31:33;98847.94;;;1.39;76.41
40872;BME280;26591;43.264;26.940;2023-01-28T14:36:42;98849.66;;;1.27;77.18
40872;BME280;26591;43.264;26.940;2023-01-28T14:39:20;98850.94;;;1.21;76.93
40872;BME280;26591;43.264;26.940;2023-01-28T14:41:48;98847.22;;;1.13;77.70
40872;BME280;26591;43.264;26.940;2023-01-28T14:44:30;98844.16;;;0.95;78.37
40872;BME280;26591;43.264;26.940;2023-01-28T14:47:04;98837.84;;;1.10;78.23
40872;BME280;26591;43.264;26.940;2023-01-28T14:55:44;98849.28;;;1.56;79.49
40872;BME280;26591;43.264;26.940;2023-01-28T14:58:13;98850.72;;;1.60;77.56
40872;BME280;26591;43.264;26.940;2023-01-28T15:00:52;98846.56;;;1.58;77.01
40872;BME280;26591;43.264;26.940;2023-01-28T15:03:19;98847.38;;;1.23;78.07
40872;BME280;26591;43.264;26.940;2023-01-28T15:05:44;98853.16;;;1.15;78.45